Time;durP1;ratioP1;P1;durP2;ratioP2;P2;SDS_P1;SDS_P2;PMS_P1;PMS_P2;Temp;Humidity;BMP_temperature;BMP_pressure;BME280_temperature;BME280_humidity;BME280_pressure;Samples;Min_cycle;Max_cycle;Signal;HPM_P1;HPM_P2
2021/11/24 00:00:42;;;;;;;2.83;0.88;;;;;;;;;;5069314;28;20062;-64
2021/11/24 00:03:09;;;;;;;4.18;0.95;;;;;;;;;;5090690;28;20032;-64
2021/11/24 00:05:35;;;;;;;3.38;0.85;;;;;;;;;;5087490;28;20372;-64
2021/11/24 00:08:01;;;;;;;5.07;1.15;;;;;;;;;;5086941;28;20083;-64
2021/11/24 00:10:32;;;;;;;4.43;1.30;;;;;;;;;;5084528;28;20036;-64
2021/11/24 00:12:59;;;;;;;5.05;1.13;;;;;;;;;;5086949;28;20193;-64
2021/11/24 00:15:25;;;;;;;4.35;1.02;;;;;;;;;;5091340;28;20062;-64
2021/11/24 00:17:51;;;;;;;8.60;1.33;;;;;;;;;;5091625;28;20040;-64
2021/11/24 00:20:18;;;;;;;4.43;1.27;;;;;;;;;;5083643;28;20051;-64
2021/11/24 00:22:44;;;;;;;8.07;1.20;;;;;;;;;;5088255;28;20036;-64
2021/11/24 00:25:11;;;;;;;7.57;1.40;;;;;;;;;;5072977;28;20492;-64
2021/11/24 00:27:37;;;;;;;3.08;1.10;;;;;;;;;;5079095;28;20043;-64
2021/11/24 00:30:05;;;;;;;5.47;1.08;;;;;;;;;;5083511;28;20491;-64
2021/11/24 00:32:31;;;;;;;7.45;1.08;;;;;;;;;;5091154;28;20038;-63
2021/11/24 00:34:58;;;;;;;7.00;1.15;;;;;;;;;;5083314;28;20341;-64
2021/11/24 00:37:24;;;;;;;3.08;0.80;;;;;;;;;;5087068;28;20032;-63
2021/11/24 00:39:50;;;;;;;4.82;1.15;;;;;;;;;;5087250;28;20136;-64
2021/11/24 00:42:16;;;;;;;5.05;1.17;;;;;;;;;;5085236;28;20086;-64
2021/11/24 00:44:42;;;;;;;4.43;1.30;;;;;;;;;;5064482;28;20051;-64
2021/11/24 00:47:09;;;;;;;2.40;0.90;;;;;;;;;;5085862;28;20457;-64
2021/11/24 00:49:36;;;;;;;2.63;0.98;;;;;;;;;;5072015;28;20048;-64
2021/11/24 00:52:02;;;;;;;7.30;0.93;;;;;;;;;;5091120;28;20044;-63
2021/11/24 00:54:29;;;;;;;5.07;1.38;;;;;;;;;;5067127;28;20052;-64
2021/11/24 00:56:55;;;;;;;4.03;0.82;;;;;;;;;;5072454;28;20135;-64
2021/11/24 00:59:21;;;;;;;7.05;1.00;;;;;;;;;;5086647;28;20036;-64
2021/11/24 01:01:47;;;;;;;3.03;0.80;;;;;;;;;;5072467;28;20050;-64
2021/11/24 01:04:13;;;;;;;5.20;1.08;;;;;;;;;;5091395;28;20043;-64
2021/11/24 01:06:39;;;;;;;2.88;0.60;;;;;;;;;;5087540;28;20059;-64
2021/11/24 01:09:05;;;;;;;3.97;0.80;;;;;;;;;;5067679;28;20063;-64
2021/11/24 01:11:32;;;;;;;6.10;0.70;;;;;;;;;;5089697;28;20054;-64
2021/11/24 01:13:58;;;;;;;5.55;1.00;;;;;;;;;;5087955;28;20051;-64
2021/11/24 01:16:24;;;;;;;3.85;0.80;;;;;;;;;;5090061;28;20136;-64
2021/11/24 01:18:50;;;;;;;3.08;1.15;;;;;;;;;;5086428;28;20068;-64
2021/11/24 01:21:16;;;;;;;2.45;0.90;;;;;;;;;;5087034;28;20060;-64
2021/11/24 01:23:45;;;;;;;4.15;0.90;;;;;;;;;;5083944;28;20051;-63
2021/11/24 01:26:11;;;;;;;3.60;0.85;;;;;;;;;;5089380;28;20044;-63
2021/11/24 01:28:37;;;;;;;5.35;1.00;;;;;;;;;;5086859;28;20044;-64
2021/11/24 01:31:04;;;;;;;5.53;0.90;;;;;;;;;;5070698;28;20075;-64
2021/11/24 01:33:30;;;;;;;4.05;0.70;;;;;;;;;;5083265;28;20040;-64
2021/11/24 01:35:56;;;;;;;4.53;1.33;;;;;;;;;;5090245;28;20399;-64
2021/11/24 01:38:22;;;;;;;5.40;0.90;;;;;;;;;;5089574;28;20368;-64
2021/11/24 01:40:48;;;;;;;4.35;1.20;;;;;;;;;;5087759;28;20471;-64
2021/11/24 01:43:15;;;;;;;3.70;1.27;;;;;;;;;;5081842;28;20040;-64
2021/11/24 01:45:41;;;;;;;4.82;1.27;;;;;;;;;;5088778;28;20079;-64
2021/11/24 01:48:07;;;;;;;2.88;1.17;;;;;;;;;;5069124;28;20043;-64
2021/11/24 01:50:33;;;;;;;9.43;1.38;;;;;;;;;;5089282;28;20127;-64
2021/11/24 01:52:59;;;;;;;8.20;1.20;;;;;;;;;;5088702;28;20129;-64
2021/11/24 01:55:26;;;;;;;4.97;1.05;;;;;;;;;;5090604;28;20040;-63
2021/11/24 01:57:52;;;;;;;6.72;1.30;;;;;;;;;;5088903;28;20040;-64
2021/11/24 02:00:24;;;;;;;2.90;1.00;;;;;;;;;;5083349;28;20070;-64
2021/11/24 02:02:50;;;;;;;5.13;1.10;;;;;;;;;;5091806;28;20083;-64
2021/11/24 02:05:16;;;;;;;3.35;1.10;;;;;;;;;;5094096;28;20492;-64
2021/11/24 02:07:43;;;;;;;4.25;1.25;;;;;;;;;;5069161;28;20048;-64
2021/11/24 02:10:09;;;;;;;3.55;1.05;;;;;;;;;;5072605;28;20499;-64
2021/11/24 02:12:36;;;;;;;4.43;0.98;;;;;;;;;;5090164;28;20433;-64
2021/11/24 02:15:03;;;;;;;6.25;1.45;;;;;;;;;;5089660;28;20086;-64
2021/11/24 02:17:29;;;;;;;3.35;1.27;;;;;;;;;;5075518;28;20044;-64
2021/11/24 02:19:55;;;;;;;4.00;1.10;;;;;;;;;;5090234;28;20040;-63
2021/11/24 02:22:22;;;;;;;2.75;1.02;;;;;;;;;;5083867;28;20036;-64
2021/11/24 02:24:48;;;;;;;3.45;1.10;;;;;;;;;;5093376;28;20032;-64
2021/11/24 02:27:14;;;;;;;4.20;1.20;;;;;;;;;;5066553;28;20096;-64
2021/11/24 02:29:44;;;;;;;5.03;1.25;;;;;;;;;;5092997;28;20036;-64
2021/11/24 02:32:10;;;;;;;3.30;1.20;;;;;;;;;;5075368;28;20494;-64
2021/11/24 02:34:36;;;;;;;3.45;0.93;;;;;;;;;;5088451;28;20372;-64
2021/11/24 02:37:03;;;;;;;4.53;1.17;;;;;;;;;;5073989;28;20745;-64
2021/11/24 02:39:30;;;;;;;5.32;1.27;;;;;;;;;;5089372;28;20097;-64
2021/11/24 02:41:56;;;;;;;4.22;1.15;;;;;;;;;;5082723;28;20044;-64
2021/11/24 02:44:28;;;;;;;3.70;1.60;;;;;;;;;;5074960;28;20044;-64
2021/11/24 02:46:56;;;;;;;5.05;1.45;;;;;;;;;;5088990;28;20112;-64
2021/11/24 02:49:22;;;;;;;5.47;1.50;;;;;;;;;;5071025;28;20064;-64
2021/11/24 02:51:48;;;;;;;5.75;1.60;;;;;;;;;;5085782;28;20123;-64
2021/11/24 02:54:15;;;;;;;6.50;1.60;;;;;;;;;;5069324;28;20682;-64
2021/11/24 02:56:41;;;;;;;5.72;1.90;;;;;;;;;;5090537;28;20110;-64
2021/11/24 02:59:08;;;;;;;4.55;1.50;;;;;;;;;;5092149;28;20065;-64
2021/11/24 03:01:35;;;;;;;6.57;1.45;;;;;;;;;;5073064;28;20055;-64
2021/11/24 03:04:01;;;;;;;3.30;1.50;;;;;;;;;;5092582;28;20044;-64
2021/11/24 03:06:27;;;;;;;6.72;1.58;;;;;;;;;;5092586;28;20032;-64
2021/11/24 03:08:53;;;;;;;4.53;1.60;;;;;;;;;;5093950;28;20514;-64
2021/11/24 03:11:19;;;;;;;3.78;1.20;;;;;;;;;;5092705;28;20115;-64
2021/11/24 03:13:45;;;;;;;3.00;1.52;;;;;;;;;;5090491;28;20056;-64
2021/11/24 03:16:11;;;;;;;3.25;1.30;;;;;;;;;;5070103;28;20128;-64
2021/11/24 03:18:38;;;;;;;4.95;1.80;;;;;;;;;;5092330;28;20051;-64
2021/11/24 03:21:04;;;;;;;3.72;1.38;;;;;;;;;;5089473;28;20044;-64
2021/11/24 03:23:30;;;;;;;7.75;1.58;;;;;;;;;;5091327;28;20165;-64
2021/11/24 03:25:56;;;;;;;5.57;1.70;;;;;;;;;;5092006;28;20048;-64
2021/11/24 03:28:22;;;;;;;6.45;1.52;;;;;;;;;;5087673;28;20043;-64
2021/11/24 03:30:48;;;;;;;3.75;1.38;;;;;;;;;;5083215;28;20044;-64
2021/11/24 03:33:16;;;;;;;3.88;1.48;;;;;;;;;;5084845;28;20048;-64
2021/11/24 03:35:42;;;;;;;3.25;1.55;;;;;;;;;;5088183;28;20141;-64
2021/11/24 03:38:08;;;;;;;5.18;1.58;;;;;;;;;;5091047;28;20101;-64
2021/11/24 03:40:35;;;;;;;5.72;1.75;;;;;;;;;;5069624;28;20041;-64
2021/11/24 03:43:01;;;;;;;6.35;1.98;;;;;;;;;;5092018;28;20117;-64
2021/11/24 03:45:29;;;;;;;7.47;1.73;;;;;;;;;;5087838;28;20047;-64
2021/11/24 03:47:56;;;;;;;4.38;1.42;;;;;;;;;;5088263;28;20036;-64
2021/11/24 03:50:22;;;;;;;7.82;3.25;;;;;;;;;;5087103;28;20036;-64
2021/11/24 03:52:49;;;;;;;8.55;1.50;;;;;;;;;;5090285;28;20368;-64
2021/11/24 03:55:15;;;;;;;4.07;1.45;;;;;;;;;;5080147;28;20093;-64
2021/11/24 03:57:42;;;;;;;7.22;1.90;;;;;;;;;;5070734;28;20074;-64
2021/11/24 04:00:09;;;;;;;8.15;2.08;;;;;;;;;;5090977;28;20043;-64
2021/11/24 04:02:37;;;;;;;3.30;1.70;;;;;;;;;;5084820;28;20116;-64
2021/11/24 04:05:04;;;;;;;5.15;2.28;;;;;;;;;;5090817;28;20050;-64
2021/11/24 04:07:30;;;;;;;4.03;1.77;;;;;;;;;;5085977;28;20102;-64
2021/11/24 04:09:56;;;;;;;5.15;1.63;;;;;;;;;;5091332;28;20048;-64
2021/11/24 04:12:22;;;;;;;2.78;1.40;;;;;;;;;;5090537;28;20040;-64
2021/11/24 04:14:48;;;;;;;3.53;1.70;;;;;;;;;;5087361;28;20050;-64
2021/11/24 04:17:15;;;;;;;4.90;1.80;;;;;;;;;;5090863;28;20483;-64
2021/11/24 04:19:41;;;;;;;4.22;1.52;;;;;;;;;;5090030;28;20044;-64
2021/11/24 04:22:08;;;;;;;2.97;1.40;;;;;;;;;;5090059;28;20075;-64
2021/11/24 04:24:35;;;;;;;4.60;1.55;;;;;;;;;;5074357;28;20051;-64
2021/11/24 04:27:01;;;;;;;8.27;2.30;;;;;;;;;;5089986;28;20051;-64
2021/11/24 04:29:27;;;;;;;4.20;1.60;;;;;;;;;;5073255;28;20525;-64
2021/11/24 04:31:54;;;;;;;5.88;2.00;;;;;;;;;;5085995;28;20040;-64
2021/11/24 04:34:20;;;;;;;4.57;1.92;;;;;;;;;;5091253;28;20036;-64
2021/11/24 04:36:46;;;;;;;4.30;1.60;;;;;;;;;;5075269;28;20051;-64
2021/11/24 04:39:13;;;;;;;7.97;2.28;;;;;;;;;;5090251;28;20032;-64
2021/11/24 04:41:39;;;;;;;4.53;1.88;;;;;;;;;;5086122;28;20451;-64
2021/11/24 04:44:05;;;;;;;7.25;2.03;;;;;;;;;;5091133;28;20069;-64
2021/11/24 04:46:31;;;;;;;5.50;1.92;;;;;;;;;;5090213;28;20043;-64
2021/11/24 04:48:57;;;;;;;3.42;1.90;;;;;;;;;;5087197;28;20119;-64
2021/11/24 04:51:24;;;;;;;5.97;1.60;;;;;;;;;;5089963;28;20040;-64
2021/11/24 04:53:50;;;;;;;4.63;2.03;;;;;;;;;;5089690;28;20135;-64
2021/11/24 04:56:16;;;;;;;6.00;2.05;;;;;;;;;;5083424;28;20102;-64
2021/11/24 04:58:52;;;;;;;5.15;1.88;;;;;;;;;;5090439;28;20471;-64
2021/11/24 05:01:18;;;;;;;8.73;2.88;;;;;;;;;;5064307;28;20051;-64
2021/11/24 05:03:45;;;;;;;4.38;1.80;;;;;;;;;;5090465;28;20043;-64
2021/11/24 05:06:12;;;;;;;8.02;1.90;;;;;;;;;;5086538;28;20046;-64
2021/11/24 05:08:39;;;;;;;5.60;1.63;;;;;;;;;;5085316;28;20052;-64
2021/11/24 05:11:06;;;;;;;3.70;1.90;;;;;;;;;;5086225;28;20503;-64
2021/11/24 05:13:33;;;;;;;4.63;2.10;;;;;;;;;;5090728;28;20078;-64
2021/11/24 05:16:03;;;;;;;7.82;2.08;;;;;;;;;;5057615;28;20131;-64
2021/11/24 05:18:36;;;;;;;6.90;2.33;;;;;;;;;;5083544;28;20118;-64
2021/11/24 05:21:05;;;;;;;4.10;1.80;;;;;;;;;;5086544;28;20040;-64
2021/11/24 05:23:37;;;;;;;10.32;2.05;;;;;;;;;;5082284;28;20419;-64
2021/11/24 05:26:04;;;;;;;5.57;2.10;;;;;;;;;;5088663;28;20048;-64
2021/11/24 05:28:31;;;;;;;7.40;2.30;;;;;;;;;;5083508;28;20044;-64
2021/11/24 05:30:57;;;;;;;4.13;1.88;;;;;;;;;;5090015;28;20396;-64
2021/11/24 05:33:23;;;;;;;4.20;2.10;;;;;;;;;;5093215;28;20044;-64
2021/11/24 05:35:49;;;;;;;4.55;1.88;;;;;;;;;;5089859;28;20052;-64
2021/11/24 05:38:16;;;;;;;6.78;2.35;;;;;;;;;;5093092;28;20379;-64
2021/11/24 05:40:42;;;;;;;18.92;3.75;;;;;;;;;;5089547;28;20051;-64
2021/11/24 05:43:08;;;;;;;6.53;2.30;;;;;;;;;;5092910;28;20097;-64
2021/11/24 05:45:48;;;;;;;7.72;2.67;;;;;;;;;;5075866;28;20055;-64
2021/11/24 05:48:14;;;;;;;4.88;2.30;;;;;;;;;;5092121;28;20048;-64
2021/11/24 05:50:42;;;;;;;4.55;2.03;;;;;;;;;;5075606;28;20136;-64
2021/11/24 05:53:09;;;;;;;9.98;2.00;;;;;;;;;;5068387;28;20044;-64
2021/11/24 05:55:35;;;;;;;7.95;2.45;;;;;;;;;;5093361;28;20439;-64
2021/11/24 05:58:01;;;;;;;9.88;3.63;;;;;;;;;;5070660;28;20090;-64
2021/11/24 06:00:27;;;;;;;5.55;1.88;;;;;;;;;;5090716;28;20094;-64
2021/11/24 06:02:53;;;;;;;7.00;2.30;;;;;;;;;;5089746;28;20128;-64
2021/11/24 06:05:19;;;;;;;7.57;2.47;;;;;;;;;;5070738;28;20492;-64
2021/11/24 06:07:46;;;;;;;4.40;1.67;;;;;;;;;;5089487;28;20570;-64
2021/11/24 06:10:12;;;;;;;11.27;2.53;;;;;;;;;;5093778;28;20511;-64
2021/11/24 06:12:38;;;;;;;5.57;2.25;;;;;;;;;;5090648;28;20036;-64
2021/11/24 06:15:05;;;;;;;7.45;2.30;;;;;;;;;;5069346;28;20044;-64
2021/11/24 06:17:31;;;;;;;4.05;2.10;;;;;;;;;;5089875;28;20055;-64
2021/11/24 06:19:58;;;;;;;4.82;2.05;;;;;;;;;;5089483;28;20036;-64
2021/11/24 06:22:24;;;;;;;8.40;2.40;;;;;;;;;;5093409;28;20072;-64
2021/11/24 06:24:50;;;;;;;7.20;2.20;;;;;;;;;;5093458;28;20044;-64
2021/11/24 06:27:16;;;;;;;4.55;2.35;;;;;;;;;;5088934;28;20203;-64
2021/11/24 06:29:42;;;;;;;4.40;2.17;;;;;;;;;;5089495;28;20051;-64
2021/11/24 06:32:08;;;;;;;5.18;2.40;;;;;;;;;;5092906;28;20040;-64
2021/11/24 06:34:34;;;;;;;8.13;2.90;;;;;;;;;;5088529;28;20036;-64
2021/11/24 06:37:01;;;;;;;8.32;2.58;;;;;;;;;;5093392;28;20044;-64
2021/11/24 06:39:28;;;;;;;10.45;2.70;;;;;;;;;;5088587;28;20045;-64
2021/11/24 06:41:54;;;;;;;11.32;3.00;;;;;;;;;;5089371;28;20468;-63
2021/11/24 06:44:21;;;;;;;5.07;2.47;;;;;;;;;;5090980;28;20044;-62
2021/11/24 06:46:47;;;;;;;9.07;2.83;;;;;;;;;;5084940;28;20032;-64
2021/11/24 06:49:14;;;;;;;7.45;2.75;;;;;;;;;;5086951;28;20039;-64
2021/11/24 06:51:40;;;;;;;7.35;2.33;;;;;;;;;;5094578;28;20036;-64
2021/11/24 06:54:07;;;;;;;6.78;2.42;;;;;;;;;;5084154;28;20040;-63
2021/11/24 06:56:33;;;;;;;6.82;2.40;;;;;;;;;;5086148;28;20052;-63
2021/11/24 06:58:59;;;;;;;4.82;2.42;;;;;;;;;;5093036;28;20487;-64
2021/11/24 07:01:25;;;;;;;5.18;2.15;;;;;;;;;;5092313;28;20098;-63
2021/11/24 07:03:51;;;;;;;7.47;2.33;;;;;;;;;;5097946;28;20046;-64
2021/11/24 07:06:17;;;;;;;4.80;2.08;;;;;;;;;;5099435;28;20048;-64
2021/11/24 07:08:44;;;;;;;6.70;2.25;;;;;;;;;;5091809;28;20040;-64
2021/11/24 07:11:10;;;;;;;6.50;2.30;;;;;;;;;;5093092;28;20051;-64
2021/11/24 07:13:36;;;;;;;8.05;2.30;;;;;;;;;;5089134;28;20055;-64
2021/11/24 07:16:03;;;;;;;4.85;2.28;;;;;;;;;;5087012;28;20500;-64
2021/11/24 07:18:30;;;;;;;6.82;2.20;;;;;;;;;;5090267;28;20076;-64
2021/11/24 07:20:56;;;;;;;11.02;2.75;;;;;;;;;;5084306;28;20066;-64
2021/11/24 07:23:22;;;;;;;6.60;2.40;;;;;;;;;;5087152;28;20039;-64
2021/11/24 07:25:48;;;;;;;6.40;2.50;;;;;;;;;;5090349;28;20044;-63
2021/11/24 07:28:14;;;;;;;7.22;3.35;;;;;;;;;;5088973;28;20039;-63
2021/11/24 07:30:41;;;;;;;9.18;2.60;;;;;;;;;;5093159;28;20059;-62
2021/11/24 07:33:07;;;;;;;8.70;2.92;;;;;;;;;;5093844;28;20040;-62
2021/11/24 07:35:33;;;;;;;8.13;3.03;;;;;;;;;;5089382;28;20484;-62
2021/11/24 07:37:59;;;;;;;6.68;2.67;;;;;;;;;;5090561;28;20090;-62
2021/11/24 07:40:25;;;;;;;6.82;2.67;;;;;;;;;;5092915;28;20539;-62
2021/11/24 07:42:52;;;;;;;8.95;3.10;;;;;;;;;;5089265;28;20060;-62
2021/11/24 07:45:18;;;;;;;6.28;2.65;;;;;;;;;;5092918;28;20131;-62
2021/11/24 07:47:44;;;;;;;9.30;3.97;;;;;;;;;;5069146;28;20436;-62
2021/11/24 07:50:10;;;;;;;9.50;3.42;;;;;;;;;;5091479;28;20040;-62
2021/11/24 07:52:37;;;;;;;6.97;3.20;;;;;;;;;;5090767;28;20048;-62
2021/11/24 07:55:04;;;;;;;5.75;3.20;;;;;;;;;;5091127;28;20092;-62
2021/11/24 07:57:30;;;;;;;5.80;3.33;;;;;;;;;;5091064;28;20470;-62
2021/11/24 07:59:56;;;;;;;7.82;3.10;;;;;;;;;;5090440;28;20063;-63
2021/11/24 08:02:23;;;;;;;7.30;3.00;;;;;;;;;;5091756;28;20032;-63
2021/11/24 08:04:49;;;;;;;9.45;3.28;;;;;;;;;;5088388;28;20032;-65
2021/11/24 08:07:16;;;;;;;6.40;3.05;;;;;;;;;;5066540;28;20048;-63
2021/11/24 08:09:42;;;;;;;9.27;3.40;;;;;;;;;;5085738;28;20127;-63
2021/11/24 08:12:08;;;;;;;9.68;3.53;;;;;;;;;;5071120;28;20047;-63
2021/11/24 08:14:35;;;;;;;8.82;3.28;;;;;;;;;;5097274;28;20032;-64
2021/11/24 08:17:02;;;;;;;10.10;3.80;;;;;;;;;;5094014;28;20036;-63
2021/11/24 08:19:28;;;;;;;5.93;3.63;;;;;;;;;;5069645;28;20482;-66
2021/11/24 08:21:54;;;;;;;9.25;3.85;;;;;;;;;;5076737;28;20127;-63
2021/11/24 08:24:22;;;;;;;6.38;3.70;;;;;;;;;;5071197;28;20143;-63
2021/11/24 08:26:48;;;;;;;10.88;3.53;;;;;;;;;;5092521;28;20052;-63
2021/11/24 08:29:14;;;;;;;9.07;3.78;;;;;;;;;;5089518;28;20036;-63
2021/11/24 08:31:41;;;;;;;10.27;4.30;;;;;;;;;;5083865;28;20051;-58
2021/11/24 08:34:08;;;;;;;8.15;3.85;;;;;;;;;;5089706;28;20047;-62
2021/11/24 08:36:34;;;;;;;11.63;4.15;;;;;;;;;;5088775;28;20093;-63
2021/11/24 08:39:01;;;;;;;7.22;3.33;;;;;;;;;;5082025;28;20081;-63
2021/11/24 08:41:27;;;;;;;6.35;3.30;;;;;;;;;;5084920;28;20051;-62
2021/11/24 08:43:53;;;;;;;6.47;3.80;;;;;;;;;;5090567;28;20039;-63
2021/11/24 08:46:19;;;;;;;9.07;4.25;;;;;;;;;;5083678;28;20050;-62
2021/11/24 08:48:45;;;;;;;6.35;3.42;;;;;;;;;;5087973;28;20043;-62
2021/11/24 08:51:11;;;;;;;6.93;3.83;;;;;;;;;;5091350;28;20044;-63
2021/11/24 08:53:38;;;;;;;9.70;3.95;;;;;;;;;;5083675;28;20054;-63
2021/11/24 08:56:04;;;;;;;8.82;4.88;;;;;;;;;;5068327;28;20054;-65
2021/11/24 08:58:30;;;;;;;8.55;3.72;;;;;;;;;;5095830;28;20035;-63
2021/11/24 09:00:57;;;;;;;6.13;3.85;;;;;;;;;;5085835;28;20045;-63
2021/11/24 09:03:23;;;;;;;9.43;4.10;;;;;;;;;;5089282;28;20040;-63
2021/11/24 09:05:49;;;;;;;10.10;3.80;;;;;;;;;;5065620;28;20052;-62
2021/11/24 09:08:16;;;;;;;9.20;4.05;;;;;;;;;;5084770;28;20049;-63
2021/11/24 09:10:42;;;;;;;8.25;3.75;;;;;;;;;;5077345;28;20051;-62
2021/11/24 09:13:08;;;;;;;8.35;4.30;;;;;;;;;;5087421;28;20055;-72
2021/11/24 09:15:35;;;;;;;7.82;3.50;;;;;;;;;;5088082;28;20083;-63
2021/11/24 09:18:02;;;;;;;7.72;3.75;;;;;;;;;;5077238;28;20044;-62
2021/11/24 09:20:28;;;;;;;8.00;3.95;;;;;;;;;;5075355;28;20063;-63
2021/11/24 09:22:54;;;;;;;16.67;4.50;;;;;;;;;;5092136;28;20349;-62
2021/11/24 09:25:24;;;;;;;8.73;4.70;;;;;;;;;;5093198;28;20036;-63
2021/11/24 09:30:22;;;;;;;6.75;3.63;;;;;;;;;;5071907;28;20131;-63
2021/11/24 09:32:48;;;;;;;7.03;3.35;;;;;;;;;;5083792;28;20044;-63
2021/11/24 09:35:15;;;;;;;10.15;4.50;;;;;;;;;;5087878;28;20435;-63
2021/11/24 09:37:42;;;;;;;7.07;4.13;;;;;;;;;;5089433;28;20481;-63
2021/11/24 09:40:09;;;;;;;6.88;3.58;;;;;;;;;;5082714;28;20035;-62
2021/11/24 09:42:37;;;;;;;8.57;3.53;;;;;;;;;;5088124;28;20040;-63
2021/11/24 09:45:04;;;;;;;9.20;3.90;;;;;;;;;;5090312;28;20383;-63
2021/11/24 09:47:32;;;;;;;8.05;3.78;;;;;;;;;;5067874;28;20039;-63
2021/11/24 09:49:59;;;;;;;8.13;4.18;;;;;;;;;;5059640;28;20417;-63
2021/11/24 09:52:26;;;;;;;6.47;3.35;;;;;;;;;;5078772;28;20094;-63
2021/11/24 09:54:52;;;;;;;7.00;3.63;;;;;;;;;;5080884;28;20036;-62
2021/11/24 09:57:19;;;;;;;7.60;3.10;;;;;;;;;;5076294;28;20158;-63
2021/11/24 09:59:48;;;;;;;7.35;4.00;;;;;;;;;;5070937;28;20044;-63
2021/11/24 10:02:15;;;;;;;8.30;3.42;;;;;;;;;;5093792;28;20078;-63
2021/11/24 10:04:42;;;;;;;6.45;3.30;;;;;;;;;;5077487;28;20043;-63
2021/11/24 10:07:10;;;;;;;8.23;3.25;;;;;;;;;;5086916;28;20436;-63
2021/11/24 10:09:36;;;;;;;6.30;3.10;;;;;;;;;;5084320;28;20400;-63
2021/11/24 10:12:02;;;;;;;8.20;3.30;;;;;;;;;;5095527;28;20112;-63
2021/11/24 10:14:29;;;;;;;11.27;3.33;;;;;;;;;;5091545;28;20488;-63
2021/11/24 10:17:05;;;;;;;7.85;3.10;;;;;;;;;;5087557;28;20054;-63
2021/11/24 10:19:31;;;;;;;6.32;3.50;;;;;;;;;;5091756;28;20354;-63
2021/11/24 10:22:02;;;;;;;7.35;3.42;;;;;;;;;;5083378;28;20036;-63
2021/11/24 10:24:29;;;;;;;6.82;3.15;;;;;;;;;;5086842;28;20097;-63
2021/11/24 10:26:55;;;;;;;6.28;2.95;;;;;;;;;;5092133;28;20039;-63
2021/11/24 10:29:21;;;;;;;7.28;3.10;;;;;;;;;;5097120;28;20040;-63
2021/11/24 10:31:51;;;;;;;7.10;3.13;;;;;;;;;;5093647;28;20097;-63
2021/11/24 10:34:29;;;;;;;8.00;3.50;;;;;;;;;;5085782;28;20040;-62
2021/11/24 10:37:03;;;;;;;8.07;3.33;;;;;;;;;;5092319;28;20119;-62
2021/11/24 10:39:31;;;;;;;10.85;3.15;;;;;;;;;;5085170;28;20048;-62
2021/11/24 10:42:05;;;;;;;8.60;3.70;;;;;;;;;;5089590;28;20063;-63
2021/11/24 10:44:31;;;;;;;6.53;3.83;;;;;;;;;;5092298;28;20088;-63
2021/11/24 10:46:58;;;;;;;9.18;3.10;;;;;;;;;;5079557;28;20075;-63
2021/11/24 10:49:32;;;;;;;8.00;3.95;;;;;;;;;;5068163;28;20051;-63
2021/11/24 10:51:58;;;;;;;9.07;3.80;;;;;;;;;;5085044;28;20072;-63
2021/11/24 10:54:26;;;;;;;7.70;3.97;;;;;;;;;;5077588;28;20565;-63
2021/11/24 10:57:01;;;;;;;6.82;3.95;;;;;;;;;;5073462;28;20047;-63
2021/11/24 10:59:27;;;;;;;8.10;3.90;;;;;;;;;;5095080;28;20074;-63
2021/11/24 11:02:13;;;;;;;7.55;3.75;;;;;;;;;;5097071;28;20135;-63
2021/11/24 11:04:54;;;;;;;8.02;4.03;;;;;;;;;;5090921;28;20041;-63
2021/11/24 11:07:20;;;;;;;7.97;3.67;;;;;;;;;;5087764;28;20067;-63
2021/11/24 11:09:46;;;;;;;7.45;3.63;;;;;;;;;;5070257;28;20449;-62
2021/11/24 11:12:14;;;;;;;8.88;4.78;;;;;;;;;;5091051;28;20050;-65
2021/11/24 11:14:40;;;;;;;7.20;3.70;;;;;;;;;;5090709;28;20044;-63
2021/11/24 11:17:06;;;;;;;8.80;4.05;;;;;;;;;;5092431;28;20089;-62
2021/11/24 11:19:41;;;;;;;6.07;4.05;;;;;;;;;;5079954;28;20124;-62
2021/11/24 11:22:09;;;;;;;11.32;4.38;;;;;;;;;;5086740;28;20059;-62
2021/11/24 11:24:35;;;;;;;8.80;3.97;;;;;;;;;;5092734;28;20076;-62
2021/11/24 11:27:01;;;;;;;8.85;4.78;;;;;;;;;;5092297;28;20496;-62
2021/11/24 11:29:28;;;;;;;7.50;4.63;;;;;;;;;;5091438;28;20050;-62
2021/11/24 11:31:55;;;;;;;6.75;4.50;;;;;;;;;;5089493;28;20078;-63
2021/11/24 11:34:22;;;;;;;8.05;4.68;;;;;;;;;;5091796;28;20043;-62
2021/11/24 11:36:49;;;;;;;8.73;5.30;;;;;;;;;;5091636;28;20044;-63
2021/11/24 11:39:15;;;;;;;11.32;5.55;;;;;;;;;;5073894;28;20040;-63
2021/11/24 11:41:43;;;;;;;8.18;5.40;;;;;;;;;;5091489;28;20102;-62
2021/11/24 11:44:12;;;;;;;9.57;5.13;;;;;;;;;;5091941;28;20126;-62
2021/11/24 11:46:47;;;;;;;10.18;5.40;;;;;;;;;;5091849;28;20046;-62
2021/11/24 11:49:16;;;;;;;12.05;5.07;;;;;;;;;;5091528;28;20040;-62
2021/11/24 11:51:42;;;;;;;11.13;5.80;;;;;;;;;;5088255;28;20071;-62
2021/11/24 11:54:10;;;;;;;9.38;4.93;;;;;;;;;;5091759;28;20040;-62
2021/11/24 11:56:40;;;;;;;8.95;5.03;;;;;;;;;;5090861;28;20499;-62
2021/11/24 11:59:08;;;;;;;12.73;5.45;;;;;;;;;;5091709;28;20131;-62
2021/11/24 12:01:41;;;;;;;11.68;6.40;;;;;;;;;;5091953;28;20109;-62
2021/11/24 12:04:14;;;;;;;12.57;5.77;;;;;;;;;;5089345;28;20075;-62
2021/11/24 12:06:42;;;;;;;8.60;5.88;;;;;;;;;;5085925;28;20067;-62
2021/11/24 12:09:11;;;;;;;13.52;6.43;;;;;;;;;;5090548;28;20047;-62
2021/11/24 12:11:59;;;;;;;12.07;6.68;;;;;;;;;;5093610;28;20044;-62
2021/11/24 12:14:41;;;;;;;10.38;6.85;;;;;;;;;;5093789;28;20514;-62
2021/11/24 12:17:26;;;;;;;13.85;6.53;;;;;;;;;;5079114;28;20140;-61
2021/11/24 12:19:52;;;;;;;11.80;6.32;;;;;;;;;;5074683;28;20058;-62
2021/11/24 12:22:38;;;;;;;11.30;6.53;;;;;;;;;;5090547;28;20092;-62
2021/11/24 12:25:05;;;;;;;11.63;6.18;;;;;;;;;;5092986;28;20044;-62
2021/11/24 12:27:49;;;;;;;10.55;5.32;;;;;;;;;;5092374;28;20040;-62
2021/11/24 12:30:15;;;;;;;10.82;6.20;;;;;;;;;;5094061;28;20097;-62
2021/11/24 12:32:42;;;;;;;9.57;5.18;;;;;;;;;;5091481;28;20086;-62
2021/11/24 12:35:16;;;;;;;9.75;5.40;;;;;;;;;;5092690;28;20053;-62
2021/11/24 12:37:43;;;;;;;9.45;5.82;;;;;;;;;;5062803;28;20056;-62
2021/11/24 12:40:12;;;;;;;9.30;6.13;;;;;;;;;;5091708;28;20039;-62
2021/11/24 12:42:38;;;;;;;9.35;6.13;;;;;;;;;;5094262;28;20040;-62
2021/11/24 12:45:04;;;;;;;8.73;5.47;;;;;;;;;;5089686;28;20047;-62
2021/11/24 12:47:30;;;;;;;12.43;6.38;;;;;;;;;;5092071;28;20406;-62
2021/11/24 12:50:05;;;;;;;10.05;5.50;;;;;;;;;;5082885;28;20041;-62
2021/11/24 12:52:31;;;;;;;12.77;6.25;;;;;;;;;;5089885;28;20047;-62
2021/11/24 12:55:04;;;;;;;11.13;6.28;;;;;;;;;;5089005;28;20504;-62
2021/11/24 12:57:30;;;;;;;15.05;7.30;;;;;;;;;;5072393;28;20048;-62
2021/11/24 12:59:56;;;;;;;11.82;7.32;;;;;;;;;;5090710;28;20079;-62
2021/11/24 13:02:22;;;;;;;12.93;7.47;;;;;;;;;;5091161;28;20043;-62
2021/11/24 13:04:49;;;;;;;11.25;6.63;;;;;;;;;;5094093;28;20043;-62
2021/11/24 13:07:17;;;;;;;9.05;6.20;;;;;;;;;;5091416;28;21452;-62
2021/11/24 13:09:43;;;;;;;8.07;6.22;;;;;;;;;;5109781;28;20514;-62
2021/11/24 13:12:13;;;;;;;10.23;7.13;;;;;;;;;;5094765;28;20047;-62
2021/11/24 13:14:40;;;;;;;11.00;6.70;;;;;;;;;;5109026;28;20104;-62
2021/11/24 13:17:07;;;;;;;9.70;6.30;;;;;;;;;;5094057;28;20047;-62
2021/11/24 13:19:34;;;;;;;9.77;6.80;;;;;;;;;;5100784;28;20044;-62
2021/11/24 13:22:00;;;;;;;11.38;6.75;;;;;;;;;;5099665;28;20130;-62
2021/11/24 13:24:27;;;;;;;11.38;6.68;;;;;;;;;;5095469;28;20092;-62
2021/11/24 13:26:55;;;;;;;13.90;7.47;;;;;;;;;;5108628;28;20074;-62
2021/11/24 13:29:24;;;;;;;10.25;6.40;;;;;;;;;;5109775;28;20494;-62
2021/11/24 13:31:50;;;;;;;12.18;6.65;;;;;;;;;;5102225;28;20093;-62
2021/11/24 13:34:16;;;;;;;9.85;6.25;;;;;;;;;;5098586;28;20087;-63
2021/11/24 13:36:45;;;;;;;27.30;7.40;;;;;;;;;;5099905;28;20043;-62
2021/11/24 13:39:11;;;;;;;12.93;6.65;;;;;;;;;;5086284;28;20089;-62
2021/11/24 13:41:38;;;;;;;11.13;6.68;;;;;;;;;;5107039;28;20433;-62
2021/11/24 13:44:05;;;;;;;13.80;6.70;;;;;;;;;;5102995;28;20407;-62
2021/11/24 13:46:33;;;;;;;13.40;6.60;;;;;;;;;;5103535;28;20195;-63
2021/11/24 13:49:09;;;;;;;8.85;6.20;;;;;;;;;;5092474;28;20123;-63
2021/11/24 13:51:35;;;;;;;11.88;6.88;;;;;;;;;;5099492;27;20056;-62
2021/11/24 13:54:05;;;;;;;11.88;7.00;;;;;;;;;;5101408;27;20138;-63
2021/11/24 13:56:34;;;;;;;11.77;6.60;;;;;;;;;;5112348;27;20046;-62
2021/11/24 13:59:02;;;;;;;11.48;7.13;;;;;;;;;;5113282;27;20043;-63
2021/11/24 14:01:30;;;;;;;11.32;7.10;;;;;;;;;;5105660;27;20052;-63
2021/11/24 14:03:59;;;;;;;10.48;6.95;;;;;;;;;;5098924;28;20036;-62
2021/11/24 14:06:34;;;;;;;12.07;7.50;;;;;;;;;;5105251;27;20046;-62
2021/11/24 14:09:16;;;;;;;11.00;6.80;;;;;;;;;;5092932;27;20055;-62
2021/11/24 14:12:03;;;;;;;9.65;6.82;;;;;;;;;;5111055;27;20051;-62
2021/11/24 14:14:40;;;;;;;9.07;6.97;;;;;;;;;;5114076;27;20046;-62
2021/11/24 14:17:07;;;;;;;9.60;6.68;;;;;;;;;;5111082;27;20433;-62
2021/11/24 14:19:34;;;;;;;11.73;7.13;;;;;;;;;;5113016;27;20042;-62
2021/11/24 14:22:01;;;;;;;12.27;7.30;;;;;;;;;;5109935;27;20135;-62
2021/11/24 14:24:27;;;;;;;13.70;7.95;;;;;;;;;;5111664;27;20035;-63
2021/11/24 14:26:55;;;;;;;13.85;7.35;;;;;;;;;;5111071;27;20101;-62
2021/11/24 14:29:23;;;;;;;13.70;6.90;;;;;;;;;;5113882;28;20040;-62
2021/11/24 14:31:54;;;;;;;11.13;7.30;;;;;;;;;;5113035;28;20391;-63
2021/11/24 14:34:21;;;;;;;14.43;7.35;;;;;;;;;;5095057;28;20052;-68
2021/11/24 14:36:47;;;;;;;9.20;7.10;;;;;;;;;;5113639;28;20084;-62
2021/11/24 14:39:14;;;;;;;10.57;7.20;;;;;;;;;;5094646;28;20081;-62
2021/11/24 14:41:41;;;;;;;9.35;7.30;;;;;;;;;;5113458;28;20055;-62
2021/11/24 14:44:08;;;;;;;9.95;6.80;;;;;;;;;;5113887;28;20454;-62